createdAt,value
2023-05-19T00:01:31.223Z,18.13
2023-05-19T00:06:36.873Z,18.16
2023-05-19T00:11:40.896Z,18.19
2023-05-19T00:16:44.876Z,17.90
2023-05-19T00:21:49.898Z,17.91
2023-05-19T00:26:53.371Z,17.88
2023-05-19T00:31:57.614Z,17.95
2023-05-19T00:37:02.746Z,18.01
2023-05-19T00:42:06.808Z,18.20
2023-05-19T00:47:10.436Z,18.23
2023-05-19T00:52:15.771Z,18.36
2023-05-19T00:57:19.545Z,18.41
2023-05-19T01:02:23.113Z,18.25
2023-05-19T01:07:28.777Z,18.34
2023-05-19T01:12:32.299Z,18.45
2023-05-19T01:17:38.958Z,18.32
2023-05-19T01:23:11.076Z,18.44
2023-05-19T01:28:25.479Z,18.62
2023-05-19T01:33:31.481Z,18.49
2023-05-19T01:38:35.899Z,18.59
2023-05-19T01:43:41.996Z,18.60
2023-05-19T01:48:47.731Z,18.57
2023-05-19T01:53:51.312Z,18.54
2023-05-19T01:59:00.307Z,18.28
2023-05-19T02:04:14.652Z,18.33
2023-05-19T02:09:22.539Z,18.19
2023-05-19T02:14:31.805Z,18.08
2023-05-19T02:19:39.559Z,17.81
2023-05-19T02:24:44.360Z,17.88
2023-05-19T02:29:47.892Z,17.68
2023-05-19T02:34:53.229Z,17.69
2023-05-19T02:39:56.926Z,17.55
2023-05-19T02:45:01.224Z,17.55
2023-05-19T02:50:07.503Z,17.35
2023-05-19T02:55:16.852Z,17.27
2023-05-19T03:00:20.633Z,17.20
2023-05-19T03:05:25.588Z,17.28
2023-05-19T03:10:29.172Z,17.25
2023-05-19T03:15:33.258Z,17.14
2023-05-19T03:20:40.293Z,16.99
2023-05-19T03:25:45.049Z,17.01
2023-05-19T03:30:50.082Z,17.06
2023-05-19T03:35:57.512Z,17.00
2023-05-19T03:41:01.052Z,16.82
2023-05-19T03:46:04.705Z,16.76
2023-05-19T03:51:28.614Z,16.78
2023-05-19T03:56:35.352Z,16.74
2023-05-19T04:01:38.810Z,16.78
2023-05-19T04:06:43.718Z,16.78
2023-05-19T04:11:47.238Z,16.86
2023-05-19T04:16:50.930Z,16.86
2023-05-19T04:21:56.972Z,16.90
2023-05-19T04:27:02.566Z,17.07
2023-05-19T04:32:07.907Z,17.01
2023-05-19T04:37:14.087Z,17.04
2023-05-19T04:42:19.526Z,17.17
2023-05-19T04:47:28.060Z,16.84
2023-05-19T04:52:33.301Z,17.34
2023-05-19T04:57:38.828Z,17.42
2023-05-19T05:02:43.535Z,17.55
2023-05-19T05:07:49.454Z,17.80
2023-05-19T05:12:54.033Z,17.95
2023-05-19T05:17:58.252Z,17.78
2023-05-19T05:23:04.114Z,17.71
2023-05-19T05:28:09.076Z,18.04
2023-05-19T05:33:14.349Z,18.24
2023-05-19T05:38:19.948Z,18.73
2023-05-19T05:43:23.771Z,18.90
2023-05-19T05:48:33.762Z,18.73
2023-05-19T05:53:45.637Z,19.00
2023-05-19T05:58:51.984Z,19.46
2023-05-19T06:03:55.567Z,19.17
2023-05-19T06:09:02.136Z,19.92
2023-05-19T06:14:06.557Z,19.95
2023-05-19T06:19:27.911Z,20.19
2023-05-19T06:24:32.844Z,19.96
2023-05-19T06:29:36.443Z,20.15
2023-05-19T06:34:43.058Z,20.82
2023-05-19T06:39:48.221Z,20.78
2023-05-19T06:44:51.860Z,20.94
2023-05-19T06:49:55.952Z,21.26
2023-05-19T06:55:05.160Z,21.79
2023-05-19T07:00:12.966Z,21.64
2023-05-19T07:05:20.557Z,22.63
2023-05-19T07:10:30.412Z,22.45
2023-05-19T07:15:34.681Z,22.86
2023-05-19T07:20:38.423Z,23.02
2023-05-19T07:25:43.452Z,23.08
2023-05-19T07:30:47.025Z,23.52
2023-05-19T07:35:50.745Z,23.55
2023-05-19T07:40:55.657Z,23.62
2023-05-19T07:46:03.426Z,23.98
2023-05-19T07:51:10.168Z,23.42
2023-05-19T07:56:15.099Z,23.82
2023-05-19T08:01:18.554Z,24.38
2023-05-19T08:06:22.502Z,24.09
2023-05-19T08:11:27.506Z,24.76
2023-05-19T08:16:31.106Z,25.12
2023-05-19T08:21:35.457Z,24.92
2023-05-19T08:26:40.291Z,25.71
2023-05-19T08:31:45.879Z,25.47
2023-05-19T08:36:50.074Z,25.39
2023-05-19T08:41:55.530Z,25.88
2023-05-19T08:47:02.478Z,25.24
2023-05-19T08:52:11.239Z,25.89
2023-05-19T08:57:16.300Z,26.22
2023-05-19T09:02:20.928Z,26.59
2023-05-19T09:07:26.633Z,26.77
2023-05-19T09:12:31.938Z,26.57
2023-05-19T09:17:37.112Z,27.01
2023-05-19T09:22:45.232Z,26.98
2023-05-19T09:27:52.052Z,27.60
2023-05-19T09:32:55.776Z,27.38
2023-05-19T09:38:10.022Z,27.39
2023-05-19T09:43:16.434Z,27.95
2023-05-19T09:48:24.341Z,29.03
2023-05-19T09:53:32.687Z,28.95
2023-05-19T09:58:39.108Z,29.45
2023-05-19T10:03:46.258Z,29.72
2023-05-19T10:08:55.619Z,30.33
2023-05-19T10:14:01.684Z,30.03
2023-05-19T10:19:05.858Z,28.93
2023-05-19T10:24:11.504Z,30.29
2023-05-19T10:29:19.385Z,31.27
2023-05-19T10:34:40.638Z,30.88
2023-05-19T10:39:45.541Z,30.00
2023-05-19T10:44:59.978Z,30.07
2023-05-19T10:50:03.701Z,29.46
2023-05-19T10:55:10.080Z,28.98
2023-05-19T11:00:31.283Z,28.81
2023-05-19T11:05:37.893Z,28.92
2023-05-19T11:10:45.004Z,27.37
2023-05-19T11:15:50.806Z,28.90
2023-05-19T11:20:59.104Z,29.82
2023-05-19T11:26:03.408Z,30.90
2023-05-19T11:31:10.387Z,31.44
2023-05-19T11:36:13.894Z,30.59
2023-05-19T11:41:18.897Z,31.12
2023-05-19T11:46:26.331Z,31.70
2023-05-19T11:51:29.888Z,30.60
2023-05-19T11:56:35.499Z,29.00
2023-05-19T12:01:40.399Z,29.72
2023-05-19T12:06:43.914Z,30.62
2023-05-19T12:11:47.466Z,31.78
2023-05-19T12:16:52.397Z,32.31
2023-05-19T12:21:56.164Z,31.24
2023-05-19T12:27:07.368Z,31.94
2023-05-19T12:32:12.811Z,31.17
2023-05-19T12:37:16.306Z,31.37
2023-05-19T12:42:19.755Z,32.58
2023-05-19T12:47:31.089Z,32.99
2023-05-19T12:52:36.387Z,32.54
2023-05-19T12:57:40.994Z,31.52
2023-05-19T13:03:00.345Z,32.69
2023-05-19T13:08:06.898Z,31.85
2023-05-19T13:13:10.806Z,32.63
2023-05-19T13:18:16.435Z,31.28
2023-05-19T13:23:20.068Z,31.18
2023-05-19T13:28:23.724Z,32.46
2023-05-19T13:33:28.669Z,30.35
2023-05-19T13:38:32.097Z,30.14
2023-05-19T13:43:35.726Z,29.78
2023-05-19T13:48:40.680Z,31.49
2023-05-19T13:53:44.273Z,32.26
2023-05-19T13:58:48.049Z,31.66
2023-05-19T14:03:53.533Z,30.38
2023-05-19T14:08:57.388Z,30.21
2023-05-19T14:14:00.821Z,30.03
2023-05-19T14:19:06.072Z,30.63
2023-05-19T14:24:09.954Z,30.13
2023-05-19T14:29:13.731Z,28.95
2023-05-19T14:34:20.963Z,29.11
2023-05-19T14:39:24.569Z,29.03
2023-05-19T14:44:32.957Z,30.20
2023-05-19T14:49:38.014Z,30.45
2023-05-19T14:54:41.511Z,29.88
2023-05-19T14:59:45.038Z,30.44
2023-05-19T15:04:49.879Z,31.39
2023-05-19T15:09:53.633Z,31.49
2023-05-19T15:14:57.163Z,31.62
2023-05-19T15:20:02.135Z,31.42
2023-05-19T15:25:07.016Z,30.43
2023-05-19T15:30:11.197Z,30.42
2023-05-19T15:35:16.091Z,29.21
2023-05-19T15:40:19.694Z,29.97
2023-05-19T15:45:23.466Z,29.81
2023-05-19T15:50:28.473Z,29.25
2023-05-19T15:55:31.971Z,29.51
2023-05-19T16:00:35.743Z,30.51
2023-05-19T16:05:40.680Z,30.72
2023-05-19T16:10:44.156Z,30.19
2023-05-19T16:15:47.751Z,30.08
2023-05-19T16:20:53.021Z,29.72
2023-05-19T16:25:57.521Z,29.74
2023-05-19T16:31:01.244Z,29.41
2023-05-19T16:36:06.438Z,29.84
2023-05-19T16:41:12.846Z,28.76
2023-05-19T16:46:16.713Z,28.59
2023-05-19T16:51:21.912Z,28.74
2023-05-19T16:56:25.407Z,28.45
2023-05-19T17:01:29.032Z,28.59
2023-05-19T17:06:33.889Z,28.34
2023-05-19T17:11:37.645Z,28.25
2023-05-19T17:16:41.178Z,27.81
2023-05-19T17:21:46.411Z,27.92
2023-05-19T17:26:50.005Z,27.62
2023-05-19T17:31:53.570Z,27.71
2023-05-19T17:36:58.480Z,27.84
2023-05-19T17:42:02.054Z,27.20
2023-05-19T17:47:07.975Z,27.47
2023-05-19T17:52:13.599Z,27.00
2023-05-19T17:57:18.238Z,27.36
2023-05-19T18:02:22.197Z,27.24
2023-05-19T18:07:28.425Z,27.24
2023-05-19T18:12:31.871Z,27.02
2023-05-19T18:17:35.480Z,26.53
2023-05-19T18:22:40.558Z,26.81
2023-05-19T18:27:44.779Z,26.90
2023-05-19T18:32:48.549Z,26.73
2023-05-19T18:37:55.803Z,26.84
2023-05-19T18:42:59.318Z,26.58
2023-05-19T18:48:02.804Z,26.41
2023-05-19T18:53:07.661Z,26.22
2023-05-19T18:58:11.191Z,26.13
2023-05-19T19:03:14.791Z,25.93
2023-05-19T19:08:19.655Z,25.68
2023-05-19T19:13:23.180Z,25.47
2023-05-19T19:18:27.070Z,25.25
2023-05-19T19:23:32.287Z,25.22
2023-05-19T19:28:36.408Z,24.85
2023-05-19T19:33:41.420Z,24.99
2023-05-19T19:38:46.349Z,24.75
2023-05-19T19:43:50.925Z,24.74
2023-05-19T19:48:58.093Z,24.65
2023-05-19T19:54:03.238Z,24.65
2023-05-19T19:59:06.822Z,24.18
2023-05-19T20:04:10.572Z,24.18
2023-05-19T20:09:15.583Z,24.24
2023-05-19T20:14:19.324Z,23.92
2023-05-19T20:19:25.271Z,24.00
2023-05-19T20:24:30.265Z,23.89
2023-05-19T20:29:33.850Z,23.88
2023-05-19T20:34:37.593Z,23.64
2023-05-19T20:39:42.558Z,23.35
2023-05-19T20:44:46.217Z,23.30
2023-05-19T20:49:49.760Z,23.33
2023-05-19T20:54:54.914Z,23.00
2023-05-19T20:59:58.480Z,22.93
2023-05-19T21:05:02.262Z,23.13
2023-05-19T21:10:08.582Z,22.89
2023-05-19T21:15:12.749Z,23.17
2023-05-19T21:20:16.377Z,22.76
2023-05-19T21:25:22.098Z,22.98
2023-05-19T21:30:26.633Z,22.53
2023-05-19T21:35:30.570Z,22.47
2023-05-19T21:40:35.606Z,22.57
2023-05-19T21:45:44.957Z,22.16
2023-05-19T21:50:53.430Z,22.36
2023-05-19T21:55:58.359Z,22.43
2023-05-19T22:01:02.112Z,22.20
2023-05-19T22:06:06.502Z,22.23
2023-05-19T22:11:11.457Z,22.05
2023-05-19T22:16:15.001Z,22.05
2023-05-19T22:21:18.913Z,22.12
2023-05-19T22:26:23.840Z,21.89
2023-05-19T22:31:27.372Z,21.96
2023-05-19T22:36:31.187Z,21.81
2023-05-19T22:41:36.240Z,21.83
2023-05-19T22:46:39.762Z,21.69
2023-05-19T22:51:43.206Z,21.53
2023-05-19T22:56:48.946Z,21.42
2023-05-19T23:01:52.545Z,21.67
2023-05-19T23:06:56.081Z,21.60
2023-05-19T23:12:00.897Z,21.27
2023-05-19T23:17:04.634Z,21.27
2023-05-19T23:22:08.633Z,21.09
2023-05-19T23:27:14.142Z,21.19
2023-05-19T23:32:17.797Z,21.17
2023-05-19T23:37:21.320Z,21.23
2023-05-19T23:42:26.432Z,21.08
2023-05-19T23:47:29.942Z,21.24
2023-05-19T23:52:33.677Z,21.16
2023-05-19T23:57:38.576Z,21.06
